Alpestre, Brazil
Current Conditions -  °F | °C
As of 12:00 PM on Friday 19 Dec 2014 (Local Time) from SBCH Reporting Station
Clear Clear  
Wind Chill: 84°   Ceiling: Unl
Heat Index: 87°   Visibility: 6mi
Dew Point: 68°   Wind: 7mph
Humidity: 58%   Direction: 350°N
Pressure: 29.85"   Gusts: NA
Location:  27.25°S, 53.03°W
Report Text: SBCH 191400Z 35006KT CAVOK 29/20 Q1011
Loading
Personal Weather Stations






























Interactive Weather Map New forecast layout! Learn more

10-Day Weather Forecast

Advertisements
Track Severe Weather on mobile